sensor_id;sensor_type;location;lat;lon;timestamp;P1;durP1;ratioP1;P2;durP2;ratioP2
29044;SDS011;16133;49.486;12.176;2022-11-14T00:00:08;79.32;;;27.67;;
29044;SDS011;16133;49.486;12.176;2022-11-14T00:02:35;82.90;;;28.30;;
29044;SDS011;16133;49.486;12.176;2022-11-14T00:05:01;71.53;;;25.15;;
29044;SDS011;16133;49.486;12.176;2022-11-14T00:07:30;86.53;;;27.80;;
29044;SDS011;16133;49.486;12.176;2022-11-14T00:09:57;66.30;;;24.65;;
29044;SDS011;16133;49.486;12.176;2022-11-14T00:12:23;83.85;;;28.15;;
29044;SDS011;16133;49.486;12.176;2022-11-14T00:14:48;113.07;;;32.35;;
29044;SDS011;16133;49.486;12.176;2022-11-14T00:17:13;87.35;;;28.15;;
29044;SDS011;16133;49.486;12.176;2022-11-14T00:19:39;72.90;;;26.00;;
29044;SDS011;16133;49.486;12.176;2022-11-14T00:22:04;86.53;;;29.92;;
29044;SDS011;16133;49.486;12.176;2022-11-14T00:24:30;94.32;;;31.73;;
29044;SDS011;16133;49.486;12.176;2022-11-14T00:26:55;100.60;;;30.92;;
29044;SDS011;16133;49.486;12.176;2022-11-14T00:29:21;99.07;;;32.65;;
29044;SDS011;16133;49.486;12.176;2022-11-14T00:31:46;97.68;;;32.00;;
29044;SDS011;16133;49.486;12.176;2022-11-14T00:34:11;97.32;;;32.83;;
29044;SDS011;16133;49.486;12.176;2022-11-14T00:36:37;88.63;;;27.88;;
29044;SDS011;16133;49.486;12.176;2022-11-14T00:39:02;84.55;;;28.10;;
29044;SDS011;16133;49.486;12.176;2022-11-14T00:41:28;82.40;;;27.13;;
29044;SDS011;16133;49.486;12.176;2022-11-14T00:43:54;68.78;;;25.48;;
29044;SDS011;16133;49.486;12.176;2022-11-14T00:46:19;76.45;;;28.25;;
29044;SDS011;16133;49.486;12.176;2022-11-14T00:48:44;70.10;;;25.02;;
29044;SDS011;16133;49.486;12.176;2022-11-14T00:51:10;68.97;;;25.42;;
29044;SDS011;16133;49.486;12.176;2022-11-14T00:53:35;76.95;;;26.50;;
29044;SDS011;16133;49.486;12.176;2022-11-14T00:56:01;85.80;;;26.80;;
29044;SDS011;16133;49.486;12.176;2022-11-14T00:58:26;75.68;;;27.20;;
29044;SDS011;16133;49.486;12.176;2022-11-14T01:00:52;70.88;;;24.48;;
29044;SDS011;16133;49.486;12.176;2022-11-14T01:03:17;67.85;;;25.05;;
29044;SDS011;16133;49.486;12.176;2022-11-14T01:05:43;67.10;;;24.42;;
29044;SDS011;16133;49.486;12.176;2022-11-14T01:08:11;69.00;;;23.80;;
29044;SDS011;16133;49.486;12.176;2022-11-14T01:10:42;64.63;;;24.23;;
29044;SDS011;16133;49.486;12.176;2022-11-14T01:13:09;60.75;;;24.13;;
29044;SDS011;16133;49.486;12.176;2022-11-14T01:15:42;60.72;;;20.30;;
29044;SDS011;16133;49.486;12.176;2022-11-14T01:18:09;60.83;;;21.70;;
29044;SDS011;16133;49.486;12.176;2022-11-14T01:20:40;54.42;;;23.02;;
29044;SDS011;16133;49.486;12.176;2022-11-14T01:23:07;61.92;;;22.65;;
29044;SDS011;16133;49.486;12.176;2022-11-14T01:25:34;55.47;;;23.00;;
29044;SDS011;16133;49.486;12.176;2022-11-14T01:28:01;63.22;;;23.73;;
29044;SDS011;16133;49.486;12.176;2022-11-14T01:30:30;60.30;;;22.50;;
29044;SDS011;16133;49.486;12.176;2022-11-14T01:32:55;63.88;;;21.90;;
29044;SDS011;16133;49.486;12.176;2022-11-14T01:35:20;64.75;;;22.45;;
29044;SDS011;16133;49.486;12.176;2022-11-14T01:37:46;65.72;;;22.80;;
29044;SDS011;16133;49.486;12.176;2022-11-14T01:40:11;60.92;;;22.45;;
29044;SDS011;16133;49.486;12.176;2022-11-14T01:42:36;67.60;;;24.63;;
29044;SDS011;16133;49.486;12.176;2022-11-14T01:45:40;70.03;;;24.77;;
29044;SDS011;16133;49.486;12.176;2022-11-14T01:48:07;58.38;;;22.92;;
29044;SDS011;16133;49.486;12.176;2022-11-14T01:51:03;59.90;;;23.70;;
29044;SDS011;16133;49.486;12.176;2022-11-14T01:53:40;63.85;;;23.10;;
29044;SDS011;16133;49.486;12.176;2022-11-14T01:56:07;59.15;;;22.90;;
29044;SDS011;16133;49.486;12.176;2022-11-14T01:58:36;58.47;;;21.80;;
29044;SDS011;16133;49.486;12.176;2022-11-14T02:01:06;52.20;;;20.05;;
29044;SDS011;16133;49.486;12.176;2022-11-14T02:03:32;52.00;;;20.02;;
29044;SDS011;16133;49.486;12.176;2022-11-14T02:06:02;52.60;;;20.27;;
29044;SDS011;16133;49.486;12.176;2022-11-14T02:08:30;47.53;;;18.83;;
29044;SDS011;16133;49.486;12.176;2022-11-14T02:10:57;49.13;;;18.63;;
29044;SDS011;16133;49.486;12.176;2022-11-14T02:13:22;46.28;;;18.27;;
29044;SDS011;16133;49.486;12.176;2022-11-14T02:15:47;42.10;;;16.55;;
29044;SDS011;16133;49.486;12.176;2022-11-14T02:18:14;41.50;;;15.80;;
29044;SDS011;16133;49.486;12.176;2022-11-14T02:20:39;40.60;;;17.83;;
29044;SDS011;16133;49.486;12.176;2022-11-14T02:23:08;40.72;;;16.85;;
29044;SDS011;16133;49.486;12.176;2022-11-14T02:25:34;40.92;;;16.85;;
29044;SDS011;16133;49.486;12.176;2022-11-14T02:28:00;44.40;;;16.73;;
29044;SDS011;16133;49.486;12.176;2022-11-14T02:30:26;48.47;;;19.60;;
29044;SDS011;16133;49.486;12.176;2022-11-14T02:32:52;41.92;;;17.88;;
29044;SDS011;16133;49.486;12.176;2022-11-14T02:35:17;39.58;;;17.40;;
29044;SDS011;16133;49.486;12.176;2022-11-14T02:37:43;54.33;;;20.60;;
29044;SDS011;16133;49.486;12.176;2022-11-14T02:40:08;44.00;;;18.02;;
29044;SDS011;16133;49.486;12.176;2022-11-14T02:42:34;52.78;;;18.83;;
29044;SDS011;16133;49.486;12.176;2022-11-14T02:44:59;46.80;;;18.75;;
29044;SDS011;16133;49.486;12.176;2022-11-14T02:47:25;52.92;;;20.30;;
29044;SDS011;16133;49.486;12.176;2022-11-14T02:49:50;48.60;;;19.77;;
29044;SDS011;16133;49.486;12.176;2022-11-14T02:52:15;58.67;;;22.10;;
29044;SDS011;16133;49.486;12.176;2022-11-14T02:54:41;74.00;;;24.73;;
29044;SDS011;16133;49.486;12.176;2022-11-14T02:57:07;72.18;;;24.92;;
29044;SDS011;16133;49.486;12.176;2022-11-14T02:59:32;118.32;;;32.42;;
29044;SDS011;16133;49.486;12.176;2022-11-14T03:01:57;115.20;;;34.40;;
29044;SDS011;16133;49.486;12.176;2022-11-14T03:04:23;85.43;;;27.25;;
29044;SDS011;16133;49.486;12.176;2022-11-14T03:06:48;67.85;;;25.02;;
29044;SDS011;16133;49.486;12.176;2022-11-14T03:09:13;78.07;;;26.77;;
29044;SDS011;16133;49.486;12.176;2022-11-14T03:11:39;79.55;;;25.42;;
29044;SDS011;16133;49.486;12.176;2022-11-14T03:14:04;65.53;;;24.20;;
29044;SDS011;16133;49.486;12.176;2022-11-14T03:16:30;57.35;;;21.27;;
29044;SDS011;16133;49.486;12.176;2022-11-14T03:18:55;65.18;;;23.65;;
29044;SDS011;16133;49.486;12.176;2022-11-14T03:21:21;56.38;;;21.65;;
29044;SDS011;16133;49.486;12.176;2022-11-14T03:23:47;71.68;;;24.45;;
29044;SDS011;16133;49.486;12.176;2022-11-14T03:26:13;61.50;;;22.08;;
29044;SDS011;16133;49.486;12.176;2022-11-14T03:28:39;59.25;;;23.40;;
29044;SDS011;16133;49.486;12.176;2022-11-14T03:31:07;58.40;;;21.52;;
29044;SDS011;16133;49.486;12.176;2022-11-14T03:33:34;57.90;;;21.85;;
29044;SDS011;16133;49.486;12.176;2022-11-14T03:36:00;58.60;;;20.88;;
29044;SDS011;16133;49.486;12.176;2022-11-14T03:38:26;115.07;;;36.33;;
29044;SDS011;16133;49.486;12.176;2022-11-14T03:40:52;70.70;;;22.92;;
29044;SDS011;16133;49.486;12.176;2022-11-14T03:43:18;70.97;;;25.67;;
29044;SDS011;16133;49.486;12.176;2022-11-14T03:45:45;75.45;;;27.75;;
29044;SDS011;16133;49.486;12.176;2022-11-14T03:48:11;64.88;;;23.85;;
29044;SDS011;16133;49.486;12.176;2022-11-14T03:50:37;70.70;;;25.80;;
29044;SDS011;16133;49.486;12.176;2022-11-14T03:53:03;69.05;;;26.65;;
29044;SDS011;16133;49.486;12.176;2022-11-14T03:55:29;92.15;;;31.80;;
29044;SDS011;16133;49.486;12.176;2022-11-14T03:57:54;87.20;;;29.55;;
29044;SDS011;16133;49.486;12.176;2022-11-14T04:00:20;75.40;;;27.05;;
29044;SDS011;16133;49.486;12.176;2022-11-14T04:02:45;67.05;;;26.40;;
29044;SDS011;16133;49.486;12.176;2022-11-14T04:05:11;67.05;;;25.70;;
29044;SDS011;16133;49.486;12.176;2022-11-14T04:07:37;61.25;;;25.42;;
29044;SDS011;16133;49.486;12.176;2022-11-14T04:10:03;78.38;;;29.13;;
29044;SDS011;16133;49.486;12.176;2022-11-14T04:12:29;73.03;;;27.38;;
29044;SDS011;16133;49.486;12.176;2022-11-14T04:14:54;61.67;;;24.40;;
29044;SDS011;16133;49.486;12.176;2022-11-14T04:17:19;65.22;;;23.52;;
29044;SDS011;16133;49.486;12.176;2022-11-14T04:19:45;55.20;;;23.42;;
29044;SDS011;16133;49.486;12.176;2022-11-14T04:22:10;62.20;;;23.27;;
29044;SDS011;16133;49.486;12.176;2022-11-14T04:24:35;59.60;;;22.95;;
29044;SDS011;16133;49.486;12.176;2022-11-14T04:27:01;56.85;;;23.13;;
29044;SDS011;16133;49.486;12.176;2022-11-14T04:29:26;54.05;;;21.48;;
29044;SDS011;16133;49.486;12.176;2022-11-14T04:31:52;69.15;;;24.73;;
29044;SDS011;16133;49.486;12.176;2022-11-14T04:34:17;58.50;;;24.10;;
29044;SDS011;16133;49.486;12.176;2022-11-14T04:36:42;52.67;;;21.90;;
29044;SDS011;16133;49.486;12.176;2022-11-14T04:39:08;51.60;;;22.17;;
29044;SDS011;16133;49.486;12.176;2022-11-14T04:41:34;61.22;;;22.75;;
29044;SDS011;16133;49.486;12.176;2022-11-14T04:43:59;53.22;;;20.70;;
29044;SDS011;16133;49.486;12.176;2022-11-14T04:46:24;52.15;;;21.42;;
29044;SDS011;16133;49.486;12.176;2022-11-14T04:48:50;56.20;;;20.88;;
29044;SDS011;16133;49.486;12.176;2022-11-14T04:51:15;51.58;;;20.40;;
29044;SDS011;16133;49.486;12.176;2022-11-14T04:53:41;57.75;;;20.67;;
29044;SDS011;16133;49.486;12.176;2022-11-14T04:56:06;52.15;;;21.08;;
29044;SDS011;16133;49.486;12.176;2022-11-14T04:58:32;45.80;;;20.90;;
29044;SDS011;16133;49.486;12.176;2022-11-14T05:00:57;48.90;;;19.55;;
29044;SDS011;16133;49.486;12.176;2022-11-14T05:03:23;50.35;;;20.08;;
29044;SDS011;16133;49.486;12.176;2022-11-14T05:05:49;53.50;;;20.80;;
29044;SDS011;16133;49.486;12.176;2022-11-14T05:08:14;54.92;;;19.95;;
29044;SDS011;16133;49.486;12.176;2022-11-14T05:10:43;45.72;;;19.13;;
29044;SDS011;16133;49.486;12.176;2022-11-14T05:13:10;47.20;;;18.05;;
29044;SDS011;16133;49.486;12.176;2022-11-14T05:15:36;43.90;;;17.40;;
29044;SDS011;16133;49.486;12.176;2022-11-14T05:18:01;43.60;;;17.45;;
29044;SDS011;16133;49.486;12.176;2022-11-14T05:20:27;44.03;;;17.70;;
29044;SDS011;16133;49.486;12.176;2022-11-14T05:22:53;49.42;;;18.70;;
29044;SDS011;16133;49.486;12.176;2022-11-14T05:25:20;45.05;;;18.52;;
29044;SDS011;16133;49.486;12.176;2022-11-14T05:27:46;45.30;;;18.85;;
29044;SDS011;16133;49.486;12.176;2022-11-14T05:30:11;45.83;;;18.60;;
29044;SDS011;16133;49.486;12.176;2022-11-14T05:32:37;51.53;;;20.10;;
29044;SDS011;16133;49.486;12.176;2022-11-14T05:35:03;51.65;;;20.13;;
29044;SDS011;16133;49.486;12.176;2022-11-14T05:37:28;54.25;;;19.83;;
29044;SDS011;16133;49.486;12.176;2022-11-14T05:39:54;47.50;;;19.55;;
29044;SDS011;16133;49.486;12.176;2022-11-14T05:42:19;48.97;;;19.70;;
29044;SDS011;16133;49.486;12.176;2022-11-14T05:44:45;50.25;;;20.27;;
29044;SDS011;16133;49.486;12.176;2022-11-14T05:47:10;46.90;;;20.50;;
29044;SDS011;16133;49.486;12.176;2022-11-14T05:49:36;49.28;;;19.92;;
29044;SDS011;16133;49.486;12.176;2022-11-14T05:52:01;50.50;;;20.73;;
29044;SDS011;16133;49.486;12.176;2022-11-14T05:54:26;51.47;;;21.15;;
29044;SDS011;16133;49.486;12.176;2022-11-14T05:56:52;51.90;;;21.23;;
29044;SDS011;16133;49.486;12.176;2022-11-14T05:59:17;53.30;;;21.73;;
29044;SDS011;16133;49.486;12.176;2022-11-14T06:01:42;49.90;;;19.95;;
29044;SDS011;16133;49.486;12.176;2022-11-14T06:04:08;50.70;;;22.40;;
29044;SDS011;16133;49.486;12.176;2022-11-14T06:06:33;49.42;;;20.85;;
29044;SDS011;16133;49.486;12.176;2022-11-14T06:08:59;54.17;;;21.75;;
29044;SDS011;16133;49.486;12.176;2022-11-14T06:11:24;47.00;;;20.83;;
29044;SDS011;16133;49.486;12.176;2022-11-14T06:13:49;57.45;;;21.83;;
29044;SDS011;16133;49.486;12.176;2022-11-14T06:16:16;72.95;;;25.33;;
29044;SDS011;16133;49.486;12.176;2022-11-14T06:18:42;106.30;;;29.63;;
29044;SDS011;16133;49.486;12.176;2022-11-14T06:21:16;119.25;;;32.75;;
29044;SDS011;16133;49.486;12.176;2022-11-14T06:23:43;68.80;;;25.13;;
29044;SDS011;16133;49.486;12.176;2022-11-14T06:26:11;88.82;;;29.00;;
29044;SDS011;16133;49.486;12.176;2022-11-14T06:28:43;145.02;;;39.58;;
29044;SDS011;16133;49.486;12.176;2022-11-14T06:31:09;101.68;;;33.53;;
29044;SDS011;16133;49.486;12.176;2022-11-14T06:33:35;125.05;;;35.47;;
29044;SDS011;16133;49.486;12.176;2022-11-14T06:36:05;121.68;;;34.47;;
29044;SDS011;16133;49.486;12.176;2022-11-14T06:38:32;118.75;;;36.22;;
29044;SDS011;16133;49.486;12.176;2022-11-14T06:41:03;140.15;;;38.10;;
29044;SDS011;16133;49.486;12.176;2022-11-14T06:43:37;113.75;;;33.58;;
29044;SDS011;16133;49.486;12.176;2022-11-14T06:46:04;77.60;;;27.83;;
29044;SDS011;16133;49.486;12.176;2022-11-14T06:48:30;71.10;;;25.08;;
29044;SDS011;16133;49.486;12.176;2022-11-14T06:50:56;63.85;;;23.77;;
29044;SDS011;16133;49.486;12.176;2022-11-14T06:53:23;65.35;;;22.33;;
29044;SDS011;16133;49.486;12.176;2022-11-14T06:55:56;75.03;;;27.27;;
29044;SDS011;16133;49.486;12.176;2022-11-14T06:58:27;56.05;;;22.00;;
29044;SDS011;16133;49.486;12.176;2022-11-14T07:00:53;65.43;;;22.83;;
29044;SDS011;16133;49.486;12.176;2022-11-14T07:03:19;65.82;;;22.60;;
29044;SDS011;16133;49.486;12.176;2022-11-14T07:05:45;55.28;;;21.45;;
29044;SDS011;16133;49.486;12.176;2022-11-14T07:08:10;51.33;;;20.65;;
29044;SDS011;16133;49.486;12.176;2022-11-14T07:10:36;61.10;;;22.27;;
29044;SDS011;16133;49.486;12.176;2022-11-14T07:13:01;60.25;;;22.30;;
29044;SDS011;16133;49.486;12.176;2022-11-14T07:15:26;74.82;;;24.02;;
29044;SDS011;16133;49.486;12.176;2022-11-14T07:17:52;75.78;;;25.92;;
29044;SDS011;16133;49.486;12.176;2022-11-14T07:20:17;103.88;;;33.20;;
29044;SDS011;16133;49.486;12.176;2022-11-14T07:22:46;73.75;;;29.35;;
29044;SDS011;16133;49.486;12.176;2022-11-14T07:25:12;74.93;;;26.50;;
29044;SDS011;16133;49.486;12.176;2022-11-14T07:27:38;76.47;;;27.80;;
29044;SDS011;16133;49.486;12.176;2022-11-14T07:30:03;77.70;;;28.80;;
29044;SDS011;16133;49.486;12.176;2022-11-14T07:32:29;68.28;;;28.77;;
29044;SDS011;16133;49.486;12.176;2022-11-14T07:34:55;65.30;;;26.20;;
29044;SDS011;16133;49.486;12.176;2022-11-14T07:37:20;61.40;;;24.05;;
29044;SDS011;16133;49.486;12.176;2022-11-14T07:39:45;60.63;;;24.15;;
29044;SDS011;16133;49.486;12.176;2022-11-14T07:42:11;52.65;;;24.23;;
29044;SDS011;16133;49.486;12.176;2022-11-14T07:44:36;52.47;;;23.30;;
29044;SDS011;16133;49.486;12.176;2022-11-14T07:47:01;51.55;;;22.25;;
29044;SDS011;16133;49.486;12.176;2022-11-14T07:49:27;52.65;;;21.45;;
29044;SDS011;16133;49.486;12.176;2022-11-14T07:51:52;45.22;;;20.98;;
29044;SDS011;16133;49.486;12.176;2022-11-14T07:54:18;46.53;;;22.08;;
29044;SDS011;16133;49.486;12.176;2022-11-14T07:56:43;52.60;;;23.80;;
29044;SDS011;16133;49.486;12.176;2022-11-14T07:59:08;52.80;;;25.10;;
29044;SDS011;16133;49.486;12.176;2022-11-14T08:01:34;54.75;;;26.15;;
29044;SDS011;16133;49.486;12.176;2022-11-14T08:03:59;55.15;;;23.27;;
29044;SDS011;16133;49.486;12.176;2022-11-14T08:06:25;49.38;;;21.77;;
29044;SDS011;16133;49.486;12.176;2022-11-14T08:08:50;46.90;;;21.23;;
29044;SDS011;16133;49.486;12.176;2022-11-14T08:11:15;53.17;;;23.92;;
29044;SDS011;16133;49.486;12.176;2022-11-14T08:14:01;51.22;;;23.02;;
29044;SDS011;16133;49.486;12.176;2022-11-14T08:16:26;55.67;;;22.90;;
29044;SDS011;16133;49.486;12.176;2022-11-14T08:18:52;49.00;;;21.05;;
29044;SDS011;16133;49.486;12.176;2022-11-14T08:21:17;50.20;;;21.63;;
29044;SDS011;16133;49.486;12.176;2022-11-14T08:23:42;54.22;;;22.50;;
29044;SDS011;16133;49.486;12.176;2022-11-14T08:26:09;52.05;;;23.20;;
29044;SDS011;16133;49.486;12.176;2022-11-14T08:28:34;54.38;;;25.10;;
29044;SDS011;16133;49.486;12.176;2022-11-14T08:31:01;57.08;;;25.48;;
29044;SDS011;16133;49.486;12.176;2022-11-14T08:33:27;62.97;;;26.45;;
29044;SDS011;16133;49.486;12.176;2022-11-14T08:35:53;59.42;;;25.73;;
29044;SDS011;16133;49.486;12.176;2022-11-14T08:38:18;64.07;;;26.50;;
29044;SDS011;16133;49.486;12.176;2022-11-14T08:40:44;58.72;;;23.85;;
29044;SDS011;16133;49.486;12.176;2022-11-14T08:43:09;55.92;;;23.35;;
29044;SDS011;16133;49.486;12.176;2022-11-14T08:45:35;50.85;;;23.17;;
29044;SDS011;16133;49.486;12.176;2022-11-14T08:48:01;48.67;;;22.13;;
29044;SDS011;16133;49.486;12.176;2022-11-14T08:50:27;58.38;;;23.52;;
29044;SDS011;16133;49.486;12.176;2022-11-14T08:52:52;57.80;;;24.90;;
29044;SDS011;16133;49.486;12.176;2022-11-14T08:55:18;61.95;;;25.38;;
29044;SDS011;16133;49.486;12.176;2022-11-14T08:57:44;68.63;;;26.42;;
29044;SDS011;16133;49.486;12.176;2022-11-14T09:00:10;102.32;;;33.83;;
29044;SDS011;16133;49.486;12.176;2022-11-14T09:02:35;76.75;;;27.15;;
29044;SDS011;16133;49.486;12.176;2022-11-14T09:05:01;87.70;;;31.60;;
29044;SDS011;16133;49.486;12.176;2022-11-14T09:07:27;80.72;;;31.23;;
29044;SDS011;16133;49.486;12.176;2022-11-14T09:09:52;87.65;;;34.13;;
29044;SDS011;16133;49.486;12.176;2022-11-14T09:12:18;81.13;;;31.55;;
29044;SDS011;16133;49.486;12.176;2022-11-14T09:14:43;64.07;;;27.90;;
29044;SDS011;16133;49.486;12.176;2022-11-14T09:17:09;76.90;;;29.55;;
29044;SDS011;16133;49.486;12.176;2022-11-14T09:19:34;66.15;;;27.58;;
29044;SDS011;16133;49.486;12.176;2022-11-14T09:22:00;75.88;;;29.75;;
29044;SDS011;16133;49.486;12.176;2022-11-14T09:24:25;79.93;;;30.20;;
29044;SDS011;16133;49.486;12.176;2022-11-14T09:26:51;68.93;;;28.52;;
29044;SDS011;16133;49.486;12.176;2022-11-14T09:29:17;76.10;;;27.65;;
29044;SDS011;16133;49.486;12.176;2022-11-14T09:31:43;80.32;;;29.05;;
29044;SDS011;16133;49.486;12.176;2022-11-14T09:34:08;72.18;;;27.08;;
29044;SDS011;16133;49.486;12.176;2022-11-14T09:36:34;71.90;;;26.55;;
29044;SDS011;16133;49.486;12.176;2022-11-14T09:38:59;102.38;;;34.80;;
29044;SDS011;16133;49.486;12.176;2022-11-14T09:41:26;54.78;;;24.05;;
29044;SDS011;16133;49.486;12.176;2022-11-14T09:44:40;65.25;;;25.15;;
29044;SDS011;16133;49.486;12.176;2022-11-14T09:47:14;59.78;;;24.85;;
29044;SDS011;16133;49.486;12.176;2022-11-14T09:49:45;69.72;;;24.27;;
29044;SDS011;16133;49.486;12.176;2022-11-14T09:52:25;78.38;;;27.08;;
29044;SDS011;16133;49.486;12.176;2022-11-14T09:55:01;66.25;;;24.95;;
29044;SDS011;16133;49.486;12.176;2022-11-14T09:57:36;90.13;;;31.27;;
29044;SDS011;16133;49.486;12.176;2022-11-14T10:00:21;106.78;;;35.45;;
29044;SDS011;16133;49.486;12.176;2022-11-14T10:22:17;40.50;;;17.10;;
29044;SDS011;16133;49.486;12.176;2022-11-14T10:25:34;31.17;;;14.07;;
29044;SDS011;16133;49.486;12.176;2022-11-14T10:30:40;41.65;;;16.92;;
29044;SDS011;16133;49.486;12.176;2022-11-14T10:33:18;37.47;;;15.82;;
29044;SDS011;16133;49.486;12.176;2022-11-14T10:35:59;33.55;;;15.20;;
29044;SDS011;16133;49.486;12.176;2022-11-14T10:38:42;31.27;;;14.40;;
29044;SDS011;16133;49.486;12.176;2022-11-14T10:41:14;35.63;;;14.40;;
29044;SDS011;16133;49.486;12.176;2022-11-14T10:48:47;46.30;;;17.67;;
29044;SDS011;16133;49.486;12.176;2022-11-14T10:51:19;34.40;;;15.43;;
29044;SDS011;16133;49.486;12.176;2022-11-14T10:58:59;33.90;;;14.15;;
29044;SDS011;16133;49.486;12.176;2022-11-14T11:06:35;29.05;;;13.52;;
29044;SDS011;16133;49.486;12.176;2022-11-14T11:09:06;28.17;;;12.43;;
29044;SDS011;16133;49.486;12.176;2022-11-14T11:11:58;36.75;;;14.13;;
29044;SDS011;16133;49.486;12.176;2022-11-14T11:14:26;27.33;;;13.10;;
29044;SDS011;16133;49.486;12.176;2022-11-14T11:19:40;29.23;;;12.75;;
29044;SDS011;16133;49.486;12.176;2022-11-14T11:24:52;23.70;;;11.93;;
29044;SDS011;16133;49.486;12.176;2022-11-14T11:29:44;27.95;;;13.00;;
29044;SDS011;16133;49.486;12.176;2022-11-14T11:32:10;26.38;;;10.52;;
29044;SDS011;16133;49.486;12.176;2022-11-14T11:34:48;21.55;;;10.27;;
29044;SDS011;16133;49.486;12.176;2022-11-14T11:37:19;24.02;;;10.93;;
29044;SDS011;16133;49.486;12.176;2022-11-14T11:39:49;20.98;;;10.57;;
29044;SDS011;16133;49.486;12.176;2022-11-14T11:42:27;32.20;;;11.98;;
29044;SDS011;16133;49.486;12.176;2022-11-14T11:45:02;22.13;;;11.07;;
29044;SDS011;16133;49.486;12.176;2022-11-14T11:47:36;17.58;;;9.50;;
29044;SDS011;16133;49.486;12.176;2022-11-14T11:50:10;19.08;;;8.93;;
29044;SDS011;16133;49.486;12.176;2022-11-14T11:52:42;24.55;;;9.13;;
29044;SDS011;16133;49.486;12.176;2022-11-14T11:55:21;16.77;;;8.52;;
29044;SDS011;16133;49.486;12.176;2022-11-14T12:00:20;20.00;;;9.77;;
29044;SDS011;16133;49.486;12.176;2022-11-14T12:02:47;16.10;;;7.88;;
29044;SDS011;16133;49.486;12.176;2022-11-14T12:05:15;18.75;;;10.10;;
29044;SDS011;16133;49.486;12.176;2022-11-14T12:10:21;18.25;;;9.18;;
29044;SDS011;16133;49.486;12.176;2022-11-14T12:27:10;18.63;;;9.20;;
29044;SDS011;16133;49.486;12.176;2022-11-14T12:35:02;14.52;;;8.07;;
29044;SDS011;16133;49.486;12.176;2022-11-14T12:37:35;20.40;;;8.90;;
29044;SDS011;16133;49.486;12.176;2022-11-14T12:40:17;15.73;;;8.88;;
29044;SDS011;16133;49.486;12.176;2022-11-14T12:42:46;15.82;;;9.32;;
29044;SDS011;16133;49.486;12.176;2022-11-14T12:50:46;17.17;;;9.32;;
29044;SDS011;16133;49.486;12.176;2022-11-14T13:12:28;46.38;;;24.25;;
29044;SDS011;16133;49.486;12.176;2022-11-14T13:18:14;23.75;;;13.35;;
29044;SDS011;16133;49.486;12.176;2022-11-14T13:21:15;16.65;;;9.85;;
29044;SDS011;16133;49.486;12.176;2022-11-14T13:24:03;17.55;;;9.68;;
29044;SDS011;16133;49.486;12.176;2022-11-14T13:28:54;15.45;;;8.82;;
29044;SDS011;16133;49.486;12.176;2022-11-14T13:40:11;16.70;;;8.93;;
29044;SDS011;16133;49.486;12.176;2022-11-14T13:51:03;15.63;;;8.30;;
29044;SDS011;16133;49.486;12.176;2022-11-14T13:53:33;16.52;;;9.02;;
29044;SDS011;16133;49.486;12.176;2022-11-14T14:01:06;16.45;;;8.32;;
29044;SDS011;16133;49.486;12.176;2022-11-14T14:03:50;16.40;;;8.75;;
29044;SDS011;16133;49.486;12.176;2022-11-14T14:15:41;18.85;;;9.13;;
29044;SDS011;16133;49.486;12.176;2022-11-14T14:18:33;22.70;;;11.48;;
29044;SDS011;16133;49.486;12.176;2022-11-14T14:32:13;12.82;;;6.57;;
29044;SDS011;16133;49.486;12.176;2022-11-14T14:34:40;13.50;;;6.30;;
29044;SDS011;16133;49.486;12.176;2022-11-14T14:37:19;11.60;;;5.75;;
29044;SDS011;16133;49.486;12.176;2022-11-14T14:39:57;12.75;;;6.13;;
29044;SDS011;16133;49.486;12.176;2022-11-14T14:42:29;12.25;;;6.22;;
29044;SDS011;16133;49.486;12.176;2022-11-14T14:45:02;12.43;;;6.22;;
29044;SDS011;16133;49.486;12.176;2022-11-14T14:47:33;13.52;;;6.65;;
29044;SDS011;16133;49.486;12.176;2022-11-14T14:50:04;11.90;;;6.90;;
29044;SDS011;16133;49.486;12.176;2022-11-14T14:52:39;12.30;;;7.10;;
29044;SDS011;16133;49.486;12.176;2022-11-14T14:55:05;12.15;;;6.13;;
29044;SDS011;16133;49.486;12.176;2022-11-14T14:57:41;11.43;;;6.63;;
29044;SDS011;16133;49.486;12.176;2022-11-14T15:00:17;15.10;;;7.43;;
29044;SDS011;16133;49.486;12.176;2022-11-14T15:02:45;14.52;;;6.97;;
29044;SDS011;16133;49.486;12.176;2022-11-14T15:05:11;13.32;;;7.63;;
29044;SDS011;16133;49.486;12.176;2022-11-14T15:07:46;16.23;;;7.60;;
29044;SDS011;16133;49.486;12.176;2022-11-14T15:10:21;16.05;;;8.10;;
29044;SDS011;16133;49.486;12.176;2022-11-14T15:12:48;22.27;;;10.63;;
29044;SDS011;16133;49.486;12.176;2022-11-14T15:15:14;27.90;;;13.90;;
29044;SDS011;16133;49.486;12.176;2022-11-14T15:17:43;32.38;;;14.00;;
29044;SDS011;16133;49.486;12.176;2022-11-14T15:20:21;29.27;;;13.98;;
29044;SDS011;16133;49.486;12.176;2022-11-14T15:23:03;25.58;;;12.90;;
29044;SDS011;16133;49.486;12.176;2022-11-14T15:25:30;24.42;;;12.25;;
29044;SDS011;16133;49.486;12.176;2022-11-14T15:27:55;25.73;;;13.48;;
29044;SDS011;16133;49.486;12.176;2022-11-14T15:30:29;28.90;;;14.98;;
29044;SDS011;16133;49.486;12.176;2022-11-14T15:32:58;39.70;;;17.67;;
29044;SDS011;16133;49.486;12.176;2022-11-14T15:37:59;32.10;;;15.23;;
29044;SDS011;16133;49.486;12.176;2022-11-14T15:40:31;32.00;;;15.02;;
29044;SDS011;16133;49.486;12.176;2022-11-14T15:42:59;31.90;;;14.30;;
29044;SDS011;16133;49.486;12.176;2022-11-14T15:45:26;26.77;;;13.30;;
29044;SDS011;16133;49.486;12.176;2022-11-14T15:47:57;26.35;;;13.38;;
29044;SDS011;16133;49.486;12.176;2022-11-14T15:50:26;29.58;;;15.30;;
29044;SDS011;16133;49.486;12.176;2022-11-14T15:52:56;24.80;;;12.57;;
29044;SDS011;16133;49.486;12.176;2022-11-14T15:55:24;27.35;;;13.15;;
29044;SDS011;16133;49.486;12.176;2022-11-14T15:57:50;23.17;;;12.93;;
29044;SDS011;16133;49.486;12.176;2022-11-14T16:00:16;32.83;;;15.07;;
29044;SDS011;16133;49.486;12.176;2022-11-14T16:02:53;37.70;;;16.75;;
29044;SDS011;16133;49.486;12.176;2022-11-14T16:05:24;43.88;;;17.90;;
29044;SDS011;16133;49.486;12.176;2022-11-14T16:07:54;43.53;;;21.27;;
29044;SDS011;16133;49.486;12.176;2022-11-14T16:10:26;58.45;;;25.33;;
29044;SDS011;16133;49.486;12.176;2022-11-14T16:12:52;51.42;;;22.30;;
29044;SDS011;16133;49.486;12.176;2022-11-14T16:15:19;47.30;;;21.80;;
29044;SDS011;16133;49.486;12.176;2022-11-14T16:17:46;48.25;;;21.85;;
29044;SDS011;16133;49.486;12.176;2022-11-14T16:20:15;39.53;;;19.92;;
29044;SDS011;16133;49.486;12.176;2022-11-14T16:22:43;38.22;;;20.55;;
29044;SDS011;16133;49.486;12.176;2022-11-14T16:25:21;49.78;;;21.33;;
29044;SDS011;16133;49.486;12.176;2022-11-14T16:27:48;42.42;;;20.63;;
29044;SDS011;16133;49.486;12.176;2022-11-14T16:30:14;43.25;;;21.83;;
29044;SDS011;16133;49.486;12.176;2022-11-14T16:32:42;62.35;;;29.15;;
29044;SDS011;16133;49.486;12.176;2022-11-14T16:35:12;79.45;;;36.03;;
29044;SDS011;16133;49.486;12.176;2022-11-14T16:37:39;63.63;;;28.70;;
29044;SDS011;16133;49.486;12.176;2022-11-14T16:40:05;55.00;;;25.38;;